Terminal Aerodrome Forecast
Issued by NWS Twin Cities, MN

Home | Current Version | Previous Version | Graphics & Text | Print | Product List | Glossary On
Versions: 1 2 3 4 5 6 7 8 9 10 11 12 13 14 15 16 17 18 19 20 21 22 23 24 25
000
FTUS43 KMPX 200500
TAFSTC
TAF
KSTC 200529Z 2006/2106 VRB02KT 6SM BR SKC
      TEMPO 2006/2008 3SM BR SCT002
     FM200800 00000KT 1SM BR SCT002
      TEMPO 2008/2012 1/2SM FG BKN001
     FM201400 13004KT P6SM SCT250
     FM210200 13008KT P6SM BKN070 PROB30 2102/2106 4SM TSRA
      OVC050CB=

USA.gov is the U.S. government's official web portal to all federal, state and local government web resources and services.